sensor_id;sensor_type;location;lat;lon;timestamp;pressure;altitude;pressure_sealevel;temperature;humidity
23016;BME280;11674;52.428;13.584;2023-06-04T00:03:34;101889.81;;;13.76;35.65
23016;BME280;11674;52.428;13.584;2023-06-04T00:08:40;101895.69;;;13.70;35.83
23016;BME280;11674;52.428;13.584;2023-06-04T00:13:47;101895.69;;;13.65;35.91
23016;BME280;11674;52.428;13.584;2023-06-04T00:18:54;101895.16;;;13.63;35.75
23016;BME280;11674;52.428;13.584;2023-06-04T00:24:01;101893.50;;;13.62;35.75
23016;BME280;11674;52.428;13.584;2023-06-04T00:29:08;101888.78;;;13.57;35.88
23016;BME280;11674;52.428;13.584;2023-06-04T00:34:17;101874.28;;;13.50;36.22
23016;BME280;11674;52.428;13.584;2023-06-04T00:39:23;101871.22;;;13.42;36.02
23016;BME280;11674;52.428;13.584;2023-06-04T00:44:30;101870.13;;;13.33;36.12
23016;BME280;11674;52.428;13.584;2023-06-04T00:49:38;101875.44;;;13.24;36.46
23016;BME280;11674;52.428;13.584;2023-06-04T00:54:45;101866.53;;;13.17;36.41
23016;BME280;11674;52.428;13.584;2023-06-04T00:59:52;101880.19;;;13.14;36.71
23016;BME280;11674;52.428;13.584;2023-06-04T01:05:27;101873.50;;;13.10;37.07
23016;BME280;11674;52.428;13.584;2023-06-04T01:10:35;101873.78;;;13.03;36.97
23016;BME280;11674;52.428;13.584;2023-06-04T01:15:42;101864.88;;;13.01;37.18
23016;BME280;11674;52.428;13.584;2023-06-04T01:20:50;101870.16;;;12.93;37.58
23016;BME280;11674;52.428;13.584;2023-06-04T01:25:57;101864.84;;;12.81;37.47
23016;BME280;11674;52.428;13.584;2023-06-04T01:31:05;101874.31;;;12.70;37.66
23016;BME280;11674;52.428;13.584;2023-06-04T01:36:12;101874.03;;;12.62;38.11
23016;BME280;11674;52.428;13.584;2023-06-04T01:41:19;101867.91;;;12.60;38.12
23016;BME280;11674;52.428;13.584;2023-06-04T01:46:26;101867.06;;;12.54;38.10
23016;BME280;11674;52.428;13.584;2023-06-04T01:51:33;101869.78;;;12.34;38.62
23016;BME280;11674;52.428;13.584;2023-06-04T01:56:40;101877.28;;;12.24;38.88
23016;BME280;11674;52.428;13.584;2023-06-04T02:01:47;101875.34;;;12.19;38.78
23016;BME280;11674;52.428;13.584;2023-06-04T02:06:54;101867.22;;;12.03;39.16
23016;BME280;11674;52.428;13.584;2023-06-04T02:12:02;101866.38;;;11.97;39.21
23016;BME280;11674;52.428;13.584;2023-06-04T02:17:13;101868.03;;;11.93;39.18
23016;BME280;11674;52.428;13.584;2023-06-04T02:22:19;101868.00;;;11.88;39.47
23016;BME280;11674;52.428;13.584;2023-06-04T02:27:27;101859.91;;;11.82;39.53
23016;BME280;11674;52.428;13.584;2023-06-04T02:32:35;101858.47;;;11.74;39.70
23016;BME280;11674;52.428;13.584;2023-06-04T02:37:41;101858.44;;;11.64;39.87
23016;BME280;11674;52.428;13.584;2023-06-04T02:42:48;101868.63;;;11.54;40.13
23016;BME280;11674;52.428;13.584;2023-06-04T02:47:56;101862.16;;;11.43;40.20
23016;BME280;11674;52.428;13.584;2023-06-04T02:53:03;101868.28;;;11.40;40.43
23016;BME280;11674;52.428;13.584;2023-06-04T02:58:10;101875.78;;;11.40;40.70
23016;BME280;11674;52.428;13.584;2023-06-04T03:03:27;101877.72;;;11.39;40.84
23016;BME280;11674;52.428;13.584;2023-06-04T03:08:33;101879.34;;;11.35;41.06
23016;BME280;11674;52.428;13.584;2023-06-04T03:13:40;101867.69;;;11.33;41.10
23016;BME280;11674;52.428;13.584;2023-06-04T03:18:48;101866.03;;;11.37;41.26
23016;BME280;11674;52.428;13.584;2023-06-04T03:23:56;101877.16;;;11.42;41.39
23016;BME280;11674;52.428;13.584;2023-06-04T03:29:02;101870.25;;;11.45;41.45
23016;BME280;11674;52.428;13.584;2023-06-04T03:34:10;101873.59;;;11.47;41.90
23016;BME280;11674;52.428;13.584;2023-06-04T03:39:16;101872.78;;;11.51;41.92
23016;BME280;11674;52.428;13.584;2023-06-04T03:44:24;101881.97;;;11.57;41.97
23016;BME280;11674;52.428;13.584;2023-06-04T03:49:32;101878.34;;;12.08;42.41
23016;BME280;11674;52.428;13.584;2023-06-04T03:54:41;101872.69;;;12.99;42.34
23016;BME280;11674;52.428;13.584;2023-06-04T03:59:47;101864.59;;;14.06;42.28
23016;BME280;11674;52.428;13.584;2023-06-04T04:04:54;101867.22;;;15.13;41.88
23016;BME280;11674;52.428;13.584;2023-06-04T04:10:02;101865.56;;;15.88;41.88
23016;BME280;11674;52.428;13.584;2023-06-04T04:15:10;101870.72;;;16.23;41.52
23016;BME280;11674;52.428;13.584;2023-06-04T04:20:27;101863.22;;;16.92;41.38
23016;BME280;11674;52.428;13.584;2023-06-04T04:25:39;101868.09;;;17.51;41.51
23016;BME280;11674;52.428;13.584;2023-06-04T04:30:47;101871.31;;;18.12;40.90
23016;BME280;11674;52.428;13.584;2023-06-04T04:35:54;101866.84;;;18.24;40.98
23016;BME280;11674;52.428;13.584;2023-06-04T04:41:02;101869.75;;;18.46;40.88
23016;BME280;11674;52.428;13.584;2023-06-04T04:46:11;101868.28;;;18.49;40.52
23016;BME280;11674;52.428;13.584;2023-06-04T04:51:18;101872.16;;;18.26;40.55
23016;BME280;11674;52.428;13.584;2023-06-04T04:56:27;101872.06;;;17.63;40.73
23016;BME280;11674;52.428;13.584;2023-06-04T05:01:34;101875.69;;;16.68;41.31
23016;BME280;11674;52.428;13.584;2023-06-04T05:06:41;101886.22;;;16.15;41.27
23016;BME280;11674;52.428;13.584;2023-06-04T05:11:48;101891.25;;;15.95;41.64
23016;BME280;11674;52.428;13.584;2023-06-04T05:16:55;101891.66;;;15.83;41.72
23016;BME280;11674;52.428;13.584;2023-06-04T05:22:02;101885.22;;;15.83;41.70
23016;BME280;11674;52.428;13.584;2023-06-04T05:27:09;101890.28;;;15.81;41.56
23016;BME280;11674;52.428;13.584;2023-06-04T05:32:16;101895.31;;;15.84;41.49
23016;BME280;11674;52.428;13.584;2023-06-04T05:37:23;101894.63;;;15.92;41.91
23016;BME280;11674;52.428;13.584;2023-06-04T05:42:32;101893.16;;;15.99;41.74
23016;BME280;11674;52.428;13.584;2023-06-04T05:47:45;101894.75;;;16.05;41.61
23016;BME280;11674;52.428;13.584;2023-06-04T05:52:53;101897.94;;;16.17;41.25
23016;BME280;11674;52.428;13.584;2023-06-04T05:58:00;101899.72;;;16.32;41.11
23016;BME280;11674;52.428;13.584;2023-06-04T06:03:07;101898.72;;;16.46;41.22
23016;BME280;11674;52.428;13.584;2023-06-04T06:08:19;101915.22;;;16.66;40.86
23016;BME280;11674;52.428;13.584;2023-06-04T06:13:26;101909.00;;;16.88;40.88
23016;BME280;11674;52.428;13.584;2023-06-04T06:18:33;101914.28;;;17.08;40.62
23016;BME280;11674;52.428;13.584;2023-06-04T06:23:39;101905.84;;;17.26;40.41
23016;BME280;11674;52.428;13.584;2023-06-04T06:28:47;101915.59;;;17.47;40.19
23016;BME280;11674;52.428;13.584;2023-06-04T06:33:55;101913.75;;;17.70;39.62
23016;BME280;11674;52.428;13.584;2023-06-04T06:39:02;101916.72;;;17.92;39.33
23016;BME280;11674;52.428;13.584;2023-06-04T06:44:09;101917.53;;;18.06;39.07
23016;BME280;11674;52.428;13.584;2023-06-04T06:49:16;101923.97;;;18.20;39.13
23016;BME280;11674;52.428;13.584;2023-06-04T06:54:22;101920.34;;;18.33;38.98
23016;BME280;11674;52.428;13.584;2023-06-04T06:59:29;101920.03;;;18.48;38.65
23016;BME280;11674;52.428;13.584;2023-06-04T07:04:36;101913.78;;;18.51;38.67
23016;BME280;11674;52.428;13.584;2023-06-04T07:09:43;101917.56;;;18.68;38.49
23016;BME280;11674;52.428;13.584;2023-06-04T07:14:50;101919.28;;;18.91;37.97
23016;BME280;11674;52.428;13.584;2023-06-04T07:19:59;101918.47;;;19.13;37.87
23016;BME280;11674;52.428;13.584;2023-06-04T07:25:06;101916.97;;;19.29;37.29
23016;BME280;11674;52.428;13.584;2023-06-04T07:30:13;101918.31;;;19.31;37.51
23016;BME280;11674;52.428;13.584;2023-06-04T07:35:20;101914.25;;;19.46;36.73
23016;BME280;11674;52.428;13.584;2023-06-04T07:40:27;101921.28;;;19.57;36.42
23016;BME280;11674;52.428;13.584;2023-06-04T07:45:34;101920.38;;;19.70;36.14
23016;BME280;11674;52.428;13.584;2023-06-04T07:50:41;101924.47;;;19.94;35.40
23016;BME280;11674;52.428;13.584;2023-06-04T07:55:48;101918.28;;;20.14;34.89
23016;BME280;11674;52.428;13.584;2023-06-04T08:00:55;101918.31;;;20.23;34.38
23016;BME280;11674;52.428;13.584;2023-06-04T08:06:02;101920.19;;;20.44;34.45
23016;BME280;11674;52.428;13.584;2023-06-04T08:11:09;101919.72;;;20.68;33.91
23016;BME280;11674;52.428;13.584;2023-06-04T08:16:16;101919.94;;;20.88;33.50
23016;BME280;11674;52.428;13.584;2023-06-04T08:21:26;101908.34;;;21.07;33.01
23016;BME280;11674;52.428;13.584;2023-06-04T08:26:34;101920.78;;;21.14;32.63
23016;BME280;11674;52.428;13.584;2023-06-04T08:36:48;101912.66;;;21.30;32.51
23016;BME280;11674;52.428;13.584;2023-06-04T08:41:59;101907.81;;;21.39;32.13
23016;BME280;11674;52.428;13.584;2023-06-04T08:47:07;101915.94;;;21.57;31.92
23016;BME280;11674;52.428;13.584;2023-06-04T08:52:15;101916.41;;;21.68;31.72
23016;BME280;11674;52.428;13.584;2023-06-04T08:57:22;101911.94;;;21.58;31.25
23016;BME280;11674;52.428;13.584;2023-06-04T09:02:29;101913.72;;;21.63;31.16
23016;BME280;11674;52.428;13.584;2023-06-04T09:07:36;101912.25;;;21.57;30.73
23016;BME280;11674;52.428;13.584;2023-06-04T09:12:46;101913.41;;;21.73;30.58
23016;BME280;11674;52.428;13.584;2023-06-04T09:17:54;101901.78;;;21.74;29.90
23016;BME280;11674;52.428;13.584;2023-06-04T09:23:01;101905.75;;;21.82;29.37
23016;BME280;11674;52.428;13.584;2023-06-04T09:28:08;101917.72;;;21.79;29.45
23016;BME280;11674;52.428;13.584;2023-06-04T09:33:15;101911.03;;;21.83;29.04
23016;BME280;11674;52.428;13.584;2023-06-04T09:38:22;101914.00;;;21.95;28.99
23016;BME280;11674;52.428;13.584;2023-06-04T09:43:29;101912.22;;;22.20;28.94
23016;BME280;11674;52.428;13.584;2023-06-04T09:48:36;101911.78;;;22.47;28.74
23016;BME280;11674;52.428;13.584;2023-06-04T09:53:53;101904.81;;;22.36;27.88
23016;BME280;11674;52.428;13.584;2023-06-04T09:59:00;101900.34;;;22.26;28.43
23016;BME280;11674;52.428;13.584;2023-06-04T10:04:08;101901.91;;;22.24;27.66
23016;BME280;11674;52.428;13.584;2023-06-04T10:09:17;101889.34;;;22.33;27.95
23016;BME280;11674;52.428;13.584;2023-06-04T10:14:39;101889.69;;;22.61;28.12
23016;BME280;11674;52.428;13.584;2023-06-04T10:19:49;101880.69;;;22.88;27.87
23016;BME280;11674;52.428;13.584;2023-06-04T10:24:56;101888.66;;;22.86;27.35
23016;BME280;11674;52.428;13.584;2023-06-04T10:30:04;101890.19;;;23.04;27.09
23016;BME280;11674;52.428;13.584;2023-06-04T10:35:11;101896.22;;;23.35;26.98
23016;BME280;11674;52.428;13.584;2023-06-04T10:40:18;101885.00;;;23.59;26.83
23016;BME280;11674;52.428;13.584;2023-06-04T10:45:28;101884.56;;;23.81;26.74
23016;BME280;11674;52.428;13.584;2023-06-04T10:50:48;101876.69;;;23.98;26.31
23016;BME280;11674;52.428;13.584;2023-06-04T10:55:56;101882.72;;;24.09;26.28
23016;BME280;11674;52.428;13.584;2023-06-04T11:01:03;101881.44;;;24.30;25.94
23016;BME280;11674;52.428;13.584;2023-06-04T11:06:16;101872.31;;;24.13;25.38
23016;BME280;11674;52.428;13.584;2023-06-04T11:11:23;101869.72;;;24.20;25.74
23016;BME280;11674;52.428;13.584;2023-06-04T11:16:32;101873.34;;;24.68;24.99
23016;BME280;11674;52.428;13.584;2023-06-04T11:21:39;101862.31;;;24.91;25.46
23016;BME280;11674;52.428;13.584;2023-06-04T11:26:46;101862.50;;;24.98;24.79
23016;BME280;11674;52.428;13.584;2023-06-04T11:31:53;101864.06;;;25.23;24.79
23016;BME280;11674;52.428;13.584;2023-06-04T11:37:09;101856.00;;;25.52;24.15
23016;BME280;11674;52.428;13.584;2023-06-04T11:42:16;101849.75;;;25.62;24.39
23016;BME280;11674;52.428;13.584;2023-06-04T11:47:24;101858.88;;;25.25;24.04
23016;BME280;11674;52.428;13.584;2023-06-04T11:52:31;101860.34;;;25.07;23.87
23016;BME280;11674;52.428;13.584;2023-06-04T11:57:39;101849.63;;;25.28;23.42
23016;BME280;11674;52.428;13.584;2023-06-04T12:02:51;101855.91;;;25.64;23.19
23016;BME280;11674;52.428;13.584;2023-06-04T12:08:08;101848.31;;;25.99;23.39
23016;BME280;11674;52.428;13.584;2023-06-04T12:13:16;101840.72;;;26.53;23.30
23016;BME280;11674;52.428;13.584;2023-06-04T12:18:24;101838.25;;;26.52;22.62
23016;BME280;11674;52.428;13.584;2023-06-04T12:23:31;101843.03;;;26.82;23.05
23016;BME280;11674;52.428;13.584;2023-06-04T12:28:38;101837.38;;;27.84;23.23
23016;BME280;11674;52.428;13.584;2023-06-04T12:33:45;101833.47;;;28.70;22.83
23016;BME280;11674;52.428;13.584;2023-06-04T12:38:52;101832.22;;;29.30;22.96
23016;BME280;11674;52.428;13.584;2023-06-04T12:43:59;101814.75;;;29.75;22.10
23016;BME280;11674;52.428;13.584;2023-06-04T12:49:07;101821.41;;;29.90;21.54
23016;BME280;11674;52.428;13.584;2023-06-04T12:54:14;101819.34;;;29.87;21.32
23016;BME280;11674;52.428;13.584;2023-06-04T12:59:21;101807.22;;;30.04;20.64
23016;BME280;11674;52.428;13.584;2023-06-04T13:04:28;101821.94;;;29.26;20.78
23016;BME280;11674;52.428;13.584;2023-06-04T13:09:35;101824.41;;;28.65;20.56
23016;BME280;11674;52.428;13.584;2023-06-04T13:14:42;101818.84;;;28.23;20.88
23016;BME280;11674;52.428;13.584;2023-06-04T13:19:49;101814.66;;;28.40;20.42
23016;BME280;11674;52.428;13.584;2023-06-04T13:24:56;101821.16;;;28.66;20.27
23016;BME280;11674;52.428;13.584;2023-06-04T13:30:03;101807.06;;;29.10;20.07
23016;BME280;11674;52.428;13.584;2023-06-04T13:35:10;101804.78;;;29.26;20.27
23016;BME280;11674;52.428;13.584;2023-06-04T13:40:17;101802.81;;;29.30;19.95
23016;BME280;11674;52.428;13.584;2023-06-04T13:45:24;101788.09;;;29.28;19.77
23016;BME280;11674;52.428;13.584;2023-06-04T13:50:34;101790.97;;;28.98;19.75
23016;BME280;11674;52.428;13.584;2023-06-04T13:55:41;101791.47;;;28.45;20.00
23016;BME280;11674;52.428;13.584;2023-06-04T14:00:48;101795.84;;;28.65;19.71
23016;BME280;11674;52.428;13.584;2023-06-04T14:05:55;101789.25;;;28.94;19.58
23016;BME280;11674;52.428;13.584;2023-06-04T14:11:02;101770.16;;;29.34;19.45
23016;BME280;11674;52.428;13.584;2023-06-04T14:16:09;101768.41;;;29.63;19.64
23016;BME280;11674;52.428;13.584;2023-06-04T14:21:16;101767.75;;;29.83;19.06
23016;BME280;11674;52.428;13.584;2023-06-04T14:26:23;101765.59;;;29.26;19.26
23016;BME280;11674;52.428;13.584;2023-06-04T14:31:30;101768.19;;;29.42;19.08
23016;BME280;11674;52.428;13.584;2023-06-04T14:36:37;101764.97;;;29.47;19.30
23016;BME280;11674;52.428;13.584;2023-06-04T14:41:44;101766.25;;;29.53;18.92
23016;BME280;11674;52.428;13.584;2023-06-04T14:46:51;101768.06;;;29.28;19.14
23016;BME280;11674;52.428;13.584;2023-06-04T14:51:58;101769.81;;;29.03;19.28
23016;BME280;11674;52.428;13.584;2023-06-04T14:57:05;101759.69;;;28.79;19.23
23016;BME280;11674;52.428;13.584;2023-06-04T15:02:12;101750.34;;;29.15;19.32
23016;BME280;11674;52.428;13.584;2023-06-04T15:07:19;101741.50;;;29.31;19.05
23016;BME280;11674;52.428;13.584;2023-06-04T15:12:26;101749.38;;;29.41;18.89
23016;BME280;11674;52.428;13.584;2023-06-04T15:17:36;101738.63;;;29.27;18.68
23016;BME280;11674;52.428;13.584;2023-06-04T15:22:44;101737.28;;;29.54;19.03
23016;BME280;11674;52.428;13.584;2023-06-04T15:27:51;101743.47;;;29.60;18.89
23016;BME280;11674;52.428;13.584;2023-06-04T15:32:58;101733.09;;;29.48;18.91
23016;BME280;11674;52.428;13.584;2023-06-04T15:38:05;101734.53;;;29.28;19.03
23016;BME280;11674;52.428;13.584;2023-06-04T15:43:12;101733.88;;;29.02;19.18
23016;BME280;11674;52.428;13.584;2023-06-04T15:48:19;101735.19;;;29.11;18.94
23016;BME280;11674;52.428;13.584;2023-06-04T15:53:26;101742.22;;;29.21;19.21
23016;BME280;11674;52.428;13.584;2023-06-04T15:58:33;101743.19;;;29.35;18.90
23016;BME280;11674;52.428;13.584;2023-06-04T16:03:47;101733.41;;;29.00;19.05
23016;BME280;11674;52.428;13.584;2023-06-04T16:08:54;101732.44;;;28.26;19.32
23016;BME280;11674;52.428;13.584;2023-06-04T16:14:02;101730.19;;;27.64;19.23
23016;BME280;11674;52.428;13.584;2023-06-04T16:19:09;101726.13;;;27.88;19.28
23016;BME280;11674;52.428;13.584;2023-06-04T16:24:16;101721.94;;;28.34;19.17
23016;BME280;11674;52.428;13.584;2023-06-04T16:29:23;101722.47;;;28.72;19.36
23016;BME280;11674;52.428;13.584;2023-06-04T16:34:30;101717.91;;;28.68;19.34
23016;BME280;11674;52.428;13.584;2023-06-04T16:39:37;101711.69;;;28.59;19.62
23016;BME280;11674;52.428;13.584;2023-06-04T16:44:44;101712.84;;;28.54;19.64
23016;BME280;11674;52.428;13.584;2023-06-04T16:49:51;101708.66;;;28.19;19.69
23016;BME280;11674;52.428;13.584;2023-06-04T16:54:58;101705.22;;;28.06;19.88
23016;BME280;11674;52.428;13.584;2023-06-04T17:00:05;101696.09;;;27.71;19.77
23016;BME280;11674;52.428;13.584;2023-06-04T17:05:12;101708.34;;;27.98;19.68
23016;BME280;11674;52.428;13.584;2023-06-04T17:10:21;101709.75;;;27.81;19.70
23016;BME280;11674;52.428;13.584;2023-06-04T17:15:28;101711.16;;;27.94;19.77
23016;BME280;11674;52.428;13.584;2023-06-04T17:20:35;101711.50;;;27.67;20.10
23016;BME280;11674;52.428;13.584;2023-06-04T17:25:42;101717.16;;;27.63;20.01
23016;BME280;11674;52.428;13.584;2023-06-04T17:30:49;101723.91;;;27.52;20.34
23016;BME280;11674;52.428;13.584;2023-06-04T17:35:56;101719.63;;;27.42;20.05
23016;BME280;11674;52.428;13.584;2023-06-04T17:41:03;101720.66;;;27.31;20.07
23016;BME280;11674;52.428;13.584;2023-06-04T17:46:10;101724.63;;;27.04;20.47
23016;BME280;11674;52.428;13.584;2023-06-04T17:51:17;101718.03;;;26.81;20.38
23016;BME280;11674;52.428;13.584;2023-06-04T17:56:24;101725.47;;;26.66;20.35
23016;BME280;11674;52.428;13.584;2023-06-04T18:01:32;101725.00;;;26.45;20.45
23016;BME280;11674;52.428;13.584;2023-06-04T18:06:39;101727.66;;;26.19;20.74
23016;BME280;11674;52.428;13.584;2023-06-04T18:11:46;101732.13;;;26.01;20.76
23016;BME280;11674;52.428;13.584;2023-06-04T18:16:53;101726.56;;;25.74;20.85
23016;BME280;11674;52.428;13.584;2023-06-04T18:22:00;101725.84;;;25.46;21.02
23016;BME280;11674;52.428;13.584;2023-06-04T18:27:08;101723.91;;;25.19;21.17
23016;BME280;11674;52.428;13.584;2023-06-04T18:32:18;101727.72;;;24.95;21.55
23016;BME280;11674;52.428;13.584;2023-06-04T18:37:25;101735.53;;;24.71;21.44
23016;BME280;11674;52.428;13.584;2023-06-04T18:42:32;101742.78;;;24.56;21.77
23016;BME280;11674;52.428;13.584;2023-06-04T18:47:39;101750.03;;;24.42;21.95
23016;BME280;11674;52.428;13.584;2023-06-04T18:52:46;101755.63;;;24.26;22.31
23016;BME280;11674;52.428;13.584;2023-06-04T18:57:53;101752.59;;;24.07;22.55
23016;BME280;11674;52.428;13.584;2023-06-04T19:03:00;101760.56;;;23.90;22.65
23016;BME280;11674;52.428;13.584;2023-06-04T19:08:07;101762.66;;;23.69;22.87
23016;BME280;11674;52.428;13.584;2023-06-04T19:13:14;101753.66;;;23.43;23.09
23016;BME280;11674;52.428;13.584;2023-06-04T19:18:21;101771.91;;;23.21;23.94
23016;BME280;11674;52.428;13.584;2023-06-04T19:23:28;101776.94;;;23.04;24.35
23016;BME280;11674;52.428;13.584;2023-06-04T19:28:36;101767.66;;;22.83;24.40
23016;BME280;11674;52.428;13.584;2023-06-04T19:33:43;101777.13;;;22.66;24.55
23016;BME280;11674;52.428;13.584;2023-06-04T19:38:50;101789.13;;;22.43;25.32
23016;BME280;11674;52.428;13.584;2023-06-04T19:43:57;101794.25;;;22.20;25.58
23016;BME280;11674;52.428;13.584;2023-06-04T19:49:04;101806.03;;;22.02;25.92
23016;BME280;11674;52.428;13.584;2023-06-04T19:54:11;101812.63;;;21.85;26.29
23016;BME280;11674;52.428;13.584;2023-06-04T19:59:18;101812.88;;;21.63;26.82
23016;BME280;11674;52.428;13.584;2023-06-04T20:04:25;101814.78;;;21.42;26.95
23016;BME280;11674;52.428;13.584;2023-06-04T20:09:33;101822.78;;;21.23;27.66
23016;BME280;11674;52.428;13.584;2023-06-04T20:14:39;101830.50;;;20.89;28.10
23016;BME280;11674;52.428;13.584;2023-06-04T20:19:46;101836.44;;;20.62;28.25
23016;BME280;11674;52.428;13.584;2023-06-04T20:24:53;101835.91;;;20.26;28.97
23016;BME280;11674;52.428;13.584;2023-06-04T20:30:00;101833.91;;;20.09;28.98
23016;BME280;11674;52.428;13.584;2023-06-04T20:35:07;101839.63;;;19.96;29.67
23016;BME280;11674;52.428;13.584;2023-06-04T20:40:21;101834.94;;;19.83;29.96
23016;BME280;11674;52.428;13.584;2023-06-04T20:45:28;101836.53;;;19.67;29.86
23016;BME280;11674;52.428;13.584;2023-06-04T20:50:35;101857.34;;;19.57;29.91
23016;BME280;11674;52.428;13.584;2023-06-04T20:55:42;101854.50;;;19.49;29.92
23016;BME280;11674;52.428;13.584;2023-06-04T21:00:49;101845.88;;;19.45;30.27
23016;BME280;11674;52.428;13.584;2023-06-04T21:05:56;101844.84;;;19.41;30.19
23016;BME280;11674;52.428;13.584;2023-06-04T21:11:03;101857.59;;;19.39;30.18
23016;BME280;11674;52.428;13.584;2023-06-04T21:16:10;101854.91;;;19.34;30.44
23016;BME280;11674;52.428;13.584;2023-06-04T21:21:17;101850.56;;;19.28;30.82
23016;BME280;11674;52.428;13.584;2023-06-04T21:26:24;101857.50;;;19.22;30.78
23016;BME280;11674;52.428;13.584;2023-06-04T21:31:31;101859.78;;;19.20;30.99
23016;BME280;11674;52.428;13.584;2023-06-04T21:36:38;101855.41;;;19.14;31.00
23016;BME280;11674;52.428;13.584;2023-06-04T21:41:45;101861.03;;;19.14;31.19
23016;BME280;11674;52.428;13.584;2023-06-04T21:46:52;101852.59;;;19.14;31.65
23016;BME280;11674;52.428;13.584;2023-06-04T21:51:59;101872.94;;;19.11;32.04
23016;BME280;11674;52.428;13.584;2023-06-04T21:57:06;101864.44;;;19.02;32.04
23016;BME280;11674;52.428;13.584;2023-06-04T22:02:13;101873.44;;;18.91;32.68
23016;BME280;11674;52.428;13.584;2023-06-04T22:07:20;101871.00;;;18.76;32.62
23016;BME280;11674;52.428;13.584;2023-06-04T22:12:27;101877.81;;;18.61;33.14
23016;BME280;11674;52.428;13.584;2023-06-04T22:17:34;101871.63;;;18.51;33.10
23016;BME280;11674;52.428;13.584;2023-06-04T22:22:41;101877.34;;;18.46;33.62
23016;BME280;11674;52.428;13.584;2023-06-04T22:27:49;101875.47;;;18.41;33.41
23016;BME280;11674;52.428;13.584;2023-06-04T22:32:56;101872.16;;;18.39;33.82
23016;BME280;11674;52.428;13.584;2023-06-04T22:38:03;101865.81;;;18.34;34.09
23016;BME280;11674;52.428;13.584;2023-06-04T22:43:10;101865.88;;;18.29;33.94
23016;BME280;11674;52.428;13.584;2023-06-04T22:48:17;101874.22;;;18.20;34.42
23016;BME280;11674;52.428;13.584;2023-06-04T22:53:24;101864.03;;;18.11;34.89
23016;BME280;11674;52.428;13.584;2023-06-04T22:58:32;101865.31;;;18.05;34.71
23016;BME280;11674;52.428;13.584;2023-06-04T23:03:39;101868.31;;;17.95;34.86
23016;BME280;11674;52.428;13.584;2023-06-04T23:08:48;101868.13;;;17.78;35.13
23016;BME280;11674;52.428;13.584;2023-06-04T23:13:55;101857.94;;;17.55;35.57
23016;BME280;11674;52.428;13.584;2023-06-04T23:19:02;101870.84;;;17.37;35.78
23016;BME280;11674;52.428;13.584;2023-06-04T23:24:09;101876.59;;;17.14;36.19
23016;BME280;11674;52.428;13.584;2023-06-04T23:29:16;101880.59;;;16.94;36.08
23016;BME280;11674;52.428;13.584;2023-06-04T23:34:23;101891.41;;;16.82;36.68
23016;BME280;11674;52.428;13.584;2023-06-04T23:39:30;101897.50;;;16.71;36.76
23016;BME280;11674;52.428;13.584;2023-06-04T23:44:37;101892.56;;;16.63;36.97
23016;BME280;11674;52.428;13.584;2023-06-04T23:49:44;101893.34;;;16.50;37.12
23016;BME280;11674;52.428;13.584;2023-06-04T23:54:51;101888.44;;;16.37;37.30
23016;BME280;11674;52.428;13.584;2023-06-04T23:59:58;101890.84;;;16.25;37.22
